Huvudsida
METAR-TAF:

METAR-TAF

Flygplatser :

Shanghai Pudong International Airport

Shanghai-Pudong, Kina

latitud: 31-07N, longitud: 121-46E, höjd: 4 m

Aktuellt väderrapport

Denna rapport gjordes för 21 minuter sedan, klockan 23:30 UTC
Vind 14 kt från syd/sydost
Temperatur 29°C
Fuktighet 79%
Tryck 1003 hPa
Sikt 10 km eller mer
Inga moln under 1 500 m eller inga cumulonimbus

METAR: ZSPD 222330Z 16007MPS CAVOK 29/25 Q1003 NOSIG

Tid: 07:51 (23:51 UTC)

Väderprognos

Denna rapport gjordes för 2 timmar och 39 minuter sedan, klockan 21:12 UTC
Prognos gäller från 23 kl. 00 UTC till 23 kl. 24 UTC
Vind 12 kt från syd/sydost
Sikt: 6000 m
Brutna moln på en höjd av 2000 ft

TAF: ZSPD 222112Z 2300/2324 16006MPS 6000 BKN020 TX32/2306Z TN26/2321Z

Aktuella väderrapporter och prognoser från 4000 flygplatser (METAR- och TAF-rapporter).

De tillgängliga stationerna syns som gula och röda prickar på kartan.

För musen över prickarna för att se namnen på stationerna.

Klicka sedan för att få väderrapporter och prognoser.

För att ändra kartan: Klicka på de gröna knapparna med ett svart kors på för att zooma in; den gröna knappen med ett streck på för att zooma ut; eller på de gröna pilarna för angränsande kartor.


METAR-TAF: